Time;durP1;ratioP1;P1;durP2;ratioP2;P2;SDS_P1;SDS_P2;PMS_P1;PMS_P2;Temp;Humidity;BMP_temperature;BMP_pressure;BME280_temperature;BME280_humidity;BME280_pressure;Samples;Min_cycle;Max_cycle;Signal;HPM_P1;HPM_P2
2021/06/06 00:01:53;;;;;;;12.48;11.03;;;;;;;16.04;60.12;100779.10;127978;1098;23147;-73
2021/06/06 00:04:25;;;;;;;15.20;11.40;;;;;;;15.99;60.31;100777.03;128189;1095;22353;-73
2021/06/06 00:07:13;;;;;;;11.90;10.75;;;;;;;15.92;60.50;100778.78;128304;1095;22343;-73
2021/06/06 00:09:43;;;;;;;14.13;12.25;;;;;;;15.90;60.61;100778.17;128371;1095;24968;-72
2021/06/06 00:12:13;;;;;;;12.60;11.23;;;;;;;15.85;60.94;100774.42;128381;1092;22325;-73
2021/06/06 00:14:43;;;;;;;15.20;11.63;;;;;;;15.80;61.05;100776.86;128990;1092;22346;-74
2021/06/06 00:17:13;;;;;;;13.08;10.30;;;;;;;15.74;60.79;100770.45;128556;1095;24991;-74
2021/06/06 00:19:42;;;;;;;13.38;11.40;;;;;;;15.70;61.37;100771.85;128580;1095;22467;-73
2021/06/06 00:22:12;;;;;;;12.90;11.60;;;;;;;15.66;61.56;100779.41;128551;1093;22920;-73
2021/06/06 00:24:42;;;;;;;14.55;12.13;;;;;;;15.62;61.99;100777.26;128572;1095;22344;-73
2021/06/06 00:27:12;;;;;;;16.13;12.83;;;;;;;15.58;62.16;100779.48;128279;1095;24236;-74
2021/06/06 00:29:41;;;;;;;13.85;12.10;;;;;;;15.55;62.66;100779.86;128322;1095;22417;-74
2021/06/06 00:32:11;;;;;;;12.83;11.35;;;;;;;15.51;62.14;100776.75;128539;1095;22413;-74
2021/06/06 00:34:42;;;;;;;13.75;12.38;;;;;;;15.45;62.47;100777.50;128659;1092;22366;-73
2021/06/06 00:37:12;;;;;;;14.13;12.55;;;;;;;15.40;62.73;100771.94;128702;1092;24267;-73
2021/06/06 00:39:43;;;;;;;14.40;12.63;;;;;;;15.37;63.08;100774.97;128696;1092;22337;-73
2021/06/06 00:42:19;;;;;;;14.95;12.65;;;;;;;15.34;63.11;100777.19;128755;1092;24467;-73
2021/06/06 00:44:49;;;;;;;17.00;14.45;;;;;;;15.30;63.45;100777.56;128626;1095;22904;-73
2021/06/06 00:47:19;;;;;;;16.80;13.18;;;;;;;15.25;63.31;100777.29;128571;1095;23159;-73
2021/06/06 00:49:50;;;;;;;14.25;12.78;;;;;;;15.20;63.52;100768.24;128400;1095;22335;-73
2021/06/06 00:52:20;;;;;;;16.70;13.63;;;;;;;15.18;63.63;100772.91;128539;1095;22341;-73
2021/06/06 00:54:52;;;;;;;16.48;13.60;;;;;;;15.14;63.61;100776.97;128590;1094;22447;-72
2021/06/06 00:57:32;;;;;;;15.13;13.50;;;;;;;15.09;63.82;100777.52;128234;1095;22354;-74
2021/06/06 01:00:23;;;;;;;15.60;12.75;;;;;;;15.04;63.85;100782.58;128204;1095;22568;-73
2021/06/06 01:02:55;;;;;;;16.07;12.90;;;;;;;14.97;64.18;100781.69;128354;1095;22353;-74
2021/06/06 01:05:34;;;;;;;17.55;13.50;;;;;;;14.93;64.13;100786.55;128303;1095;22344;-74
2021/06/06 01:08:13;;;;;;;14.68;12.45;;;;;;;14.89;64.69;100779.11;128538;1095;22792;-74
2021/06/06 01:10:54;;;;;;;15.25;13.65;;;;;;;14.84;64.94;100787.66;128543;1095;22339;-73
2021/06/06 01:13:39;;;;;;;13.93;12.53;;;;;;;14.80;65.20;100781.88;128306;1095;22398;-73
2021/06/06 01:16:42;;;;;;;15.83;14.18;;;;;;;14.77;65.00;100784.09;128711;1092;22346;-74
2021/06/06 01:19:34;;;;;;;17.90;14.25;;;;;;;14.73;64.91;100780.98;128748;1092;22330;-73
2021/06/06 01:22:20;;;;;;;15.50;13.63;;;;;;;14.69;65.08;100784.98;128698;1092;22335;-75
2021/06/06 01:24:55;;;;;;;17.47;14.80;;;;;;;14.68;64.73;100787.84;128704;1092;22736;-74
2021/06/06 01:27:30;;;;;;;14.25;12.80;;;;;;;14.64;65.42;100790.05;128693;1092;23279;-74
2021/06/06 01:30:15;;;;;;;14.28;12.78;;;;;;;14.62;65.12;100786.73;128713;1092;22327;-73
2021/06/06 01:33:00;;;;;;;14.38;13.00;;;;;;;14.59;65.21;100790.61;128714;1092;22344;-73
2021/06/06 01:35:39;;;;;;;14.65;13.15;;;;;;;14.54;65.33;100790.31;128753;1092;22304;-73
2021/06/06 01:38:24;;;;;;;16.65;13.63;;;;;;;14.51;65.64;100792.52;128338;1095;22358;-73
2021/06/06 01:41:00;;;;;;;16.23;13.07;;;;;;;14.48;65.52;100791.02;128345;1095;22358;-72
2021/06/06 01:43:35;;;;;;;18.43;13.85;;;;;;;14.45;65.30;100790.55;128359;1095;22814;-73
2021/06/06 01:46:15;;;;;;;13.53;12.20;;;;;;;14.42;65.78;100789.08;128529;1095;22372;-73
2021/06/06 01:48:47;;;;;;;17.20;13.33;;;;;;;14.40;66.07;100798.27;128626;1095;22356;-74
2021/06/06 01:51:30;;;;;;;14.93;13.18;;;;;;;14.38;65.88;100792.30;128550;1095;25858;-73
2021/06/06 01:54:02;;;;;;;17.47;12.90;;;;;;;14.34;66.25;100800.63;128284;1095;22618;-73
2021/06/06 01:56:36;;;;;;;13.65;12.25;;;;;;;14.30;66.11;100799.34;128529;1092;24290;-73
2021/06/06 01:59:15;;;;;;;16.28;14.55;;;;;;;14.26;66.33;100794.55;128742;1092;22346;-73
2021/06/06 02:01:49;;;;;;;26.23;15.10;;;;;;;14.22;66.49;100794.09;128681;1092;22373;-73
2021/06/06 02:04:22;;;;;;;16.43;13.70;;;;;;;14.21;66.28;100796.95;128696;1092;23164;-73
2021/06/06 02:07:09;;;;;;;15.50;13.90;;;;;;;14.19;66.56;100799.77;128707;1091;22337;-72
2021/06/06 02:10:07;;;;;;;19.73;14.45;;;;;;;14.15;66.66;100800.31;128735;1092;22482;-73
2021/06/06 02:12:47;;;;;;;15.43;13.78;;;;;;;14.08;66.62;100806.34;128755;1092;24485;-74
2021/06/06 02:15:28;;;;;;;16.13;13.73;;;;;;;14.03;66.89;100792.80;128696;1092;22356;-73
2021/06/06 02:18:10;;;;;;;15.75;14.15;;;;;;;13.98;66.82;100794.33;128726;1092;22334;-73
2021/06/06 02:20:48;;;;;;;20.23;16.67;;;;;;;13.95;67.30;100797.34;128661;1092;22525;-73
2021/06/06 02:23:29;;;;;;;21.23;16.03;;;;;;;13.91;67.20;100796.05;128672;1092;23253;-73
2021/06/06 02:26:16;;;;;;;15.38;13.80;;;;;;;13.87;67.38;100799.06;128679;1092;22404;-73
2021/06/06 02:29:06;;;;;;;17.38;14.33;;;;;;;13.86;67.62;100805.38;128615;1092;22329;-73
2021/06/06 02:32:00;;;;;;;20.52;16.05;;;;;;;13.83;67.63;100804.92;129006;1092;22335;-73
2021/06/06 02:35:02;;;;;;;16.33;14.83;;;;;;;13.78;67.52;100807.27;128203;1095;22366;-73
2021/06/06 02:38:00;;;;;;;24.73;22.10;;;;;;;13.74;67.62;100803.31;128573;1094;24313;-72
2021/06/06 02:40:57;;;;;;;18.75;16.80;;;;;;;13.71;68.05;100803.67;128298;1095;22458;-73
2021/06/06 02:43:43;;;;;;;18.45;15.40;;;;;;;13.69;67.76;100801.17;128295;1095;24199;-74
2021/06/06 02:46:17;;;;;;;17.88;15.98;;;;;;;13.68;68.16;100796.88;128548;1095;23039;-73
2021/06/06 02:48:59;;;;;;;17.68;15.35;;;;;;;13.71;68.14;100795.70;128272;1095;22363;-72
2021/06/06 02:51:39;;;;;;;18.60;16.10;;;;;;;13.72;68.16;100802.66;128349;1095;22476;-72
2021/06/06 02:54:19;;;;;;;18.95;16.68;;;;;;;13.72;68.49;100800.83;128692;1092;23275;-73
2021/06/06 02:56:56;;;;;;;20.03;17.10;;;;;;;13.74;68.05;100806.80;128694;1092;23222;-72
2021/06/06 02:59:35;;;;;;;19.58;16.05;;;;;;;13.76;68.16;100810.11;128679;1092;24476;-72
2021/06/06 03:02:14;;;;;;;19.50;16.53;;;;;;;13.76;68.47;100810.11;128717;1092;22327;-72
2021/06/06 03:04:53;;;;;;;19.90;17.33;;;;;;;13.76;68.02;100809.26;128688;1092;22327;-73
2021/06/06 03:07:40;;;;;;;21.98;15.60;;;;;;;13.76;68.56;100803.95;128687;1092;22343;-73
2021/06/06 03:10:11;;;;;;;20.73;17.20;;;;;;;13.76;68.39;100810.11;128836;1092;22331;-74
2021/06/06 03:12:48;;;;;;;20.18;17.28;;;;;;;13.79;68.39;100811.56;128694;1092;22337;-72
2021/06/06 03:15:23;;;;;;;19.23;16.95;;;;;;;13.81;68.85;100818.35;128718;1092;23324;-72
2021/06/06 03:17:54;;;;;;;22.95;17.93;;;;;;;13.81;68.66;100822.84;129044;1090;22343;-78
2021/06/06 03:20:40;;;;;;;24.37;18.40;;;;;;;13.81;68.60;100823.66;128507;1095;22369;-75
2021/06/06 03:23:19;;;;;;;21.50;19.20;;;;;;;13.80;68.41;100822.02;128432;1095;22424;-75
2021/06/06 03:25:59;;;;;;;23.13;17.95;;;;;;;13.81;68.61;100825.50;128374;1095;22343;-74
2021/06/06 03:28:36;;;;;;;20.55;17.73;;;;;;;13.82;68.64;100827.97;128348;1095;23077;-75
2021/06/06 03:31:20;;;;;;;21.60;18.68;;;;;;;13.87;68.97;100828.27;128386;1095;22468;-75
2021/06/06 03:33:59;;;;;;;25.58;19.08;;;;;;;13.94;68.70;100827.56;128590;1094;22356;-74
2021/06/06 03:36:41;;;;;;;20.70;18.20;;;;;;;13.98;69.09;100832.33;128369;1095;24338;-75
2021/06/06 03:39:18;;;;;;;30.83;27.40;;;;;;;14.04;68.40;100833.46;128611;1092;22404;-76
2021/06/06 03:41:48;;;;;;;32.73;29.23;;;;;;;14.09;68.89;100831.92;128743;1092;22337;-74
2021/06/06 03:44:23;;;;;;;34.58;31.03;;;;;;;14.16;68.68;100831.19;128756;1092;22333;-75
2021/06/06 03:46:56;;;;;;;38.98;34.75;;;;;;;14.21;68.78;100828.83;128780;1092;22380;-74
2021/06/06 03:49:27;;;;;;;41.28;36.10;;;;;;;14.27;68.51;100828.94;128817;1089;22349;-74
2021/06/06 03:51:58;;;;;;;47.35;40.73;;;;;;;14.34;68.64;100826.38;128766;1092;22365;-75
2021/06/06 03:54:29;;;;;;;55.05;49.30;;;;;;;14.41;68.62;100829.97;128732;1092;22776;-76
2021/06/06 03:56:59;;;;;;;40.83;36.55;;;;;;;14.48;68.42;100830.06;128776;1092;22410;-74
2021/06/06 03:59:30;;;;;;;46.05;40.55;;;;;;;14.56;68.39;100828.20;128803;1092;23182;-74
2021/06/06 04:02:00;;;;;;;45.70;40.93;;;;;;;14.67;68.49;100834.06;128763;1091;22424;-75
2021/06/06 04:04:30;;;;;;;47.63;42.60;;;;;;;14.76;68.60;100832.95;128787;1092;22328;-76
2021/06/06 04:07:00;;;;;;;32.80;29.70;;;;;;;14.85;67.93;100834.52;129045;1091;22831;-74
2021/06/06 04:09:30;;;;;;;26.65;24.00;;;;;;;14.96;67.49;100831.41;128765;1092;22348;-74
2021/06/06 04:12:00;;;;;;;30.93;27.78;;;;;;;15.07;67.56;100835.42;128728;1091;22336;-73
2021/06/06 04:14:31;;;;;;;25.83;23.30;;;;;;;15.18;67.39;100821.64;128650;1092;22775;-73
2021/06/06 04:17:03;;;;;;;26.33;23.50;;;;;;;15.29;67.07;100823.84;128617;1093;22340;-73
2021/06/06 04:19:34;;;;;;;;;;;;;;;15.38;67.12;100821.87;128807;1095;22359;-75
2021/06/06 04:22:04;;;;;;;25.33;22.83;;;;;;;15.47;67.02;100820.75;128645;1095;23856;-74
2021/06/06 04:24:34;;;;;;;23.90;21.40;;;;;;;15.62;66.87;100822.53;128640;1095;22903;-75
2021/06/06 04:27:06;;;;;;;23.70;19.20;;;;;;;15.74;66.23;100821.88;128728;1095;22353;-76
2021/06/06 04:29:35;;;;;;;22.40;20.17;;;;;;;15.88;66.25;100828.15;128627;1095;22683;-75
2021/06/06 04:32:13;;;;;;;25.28;21.40;;;;;;;16.06;65.96;100832.19;128693;1095;22339;-75
2021/06/06 04:34:48;;;;;;;18.45;15.78;;;;;;;16.22;65.46;100829.25;128668;1092;22446;-74
2021/06/06 04:37:20;;;;;;;17.58;15.43;;;;;;;16.38;64.90;100820.97;128703;1092;22682;-74
2021/06/06 04:39:50;;;;;;;18.48;16.15;;;;;;;16.54;64.54;100821.70;128754;1092;22429;-75
2021/06/06 04:42:21;;;;;;;17.55;15.83;;;;;;;16.71;64.14;100836.38;128749;1092;22334;-75
2021/06/06 04:44:54;;;;;;;16.00;14.38;;;;;;;16.85;63.80;100827.45;128771;1092;22341;-74
2021/06/06 04:47:24;;;;;;;16.80;15.10;;;;;;;17.03;63.20;100828.78;128695;1092;22356;-74
2021/06/06 04:49:57;;;;;;;17.78;14.48;;;;;;;17.19;63.40;100825.75;128728;1091;22654;-75
2021/06/06 04:52:35;;;;;;;19.53;16.03;;;;;;;17.38;62.77;100826.85;128714;1092;22329;-77
2021/06/06 04:55:19;;;;;;;16.10;13.70;;;;;;;17.53;61.76;100826.70;128667;1092;22430;-75
2021/06/06 04:57:48;;;;;;;;;;;;;;;17.67;62.19;100831.04;128662;1092;23488;-74
2021/06/06 05:00:23;;;;;;;;;;;;;;;17.85;61.80;100827.80;128749;1092;21254;-75
2021/06/06 05:02:53;;;;;;;;;;;;;;;18.05;61.86;100833.98;128744;1092;21276;-74
2021/06/06 05:05:24;;;;;;;;;;;;;;;18.26;61.35;100838.33;129051;1092;21353;-74
2021/06/06 05:07:58;;;;;;;;;;;;;;;18.47;60.91;100831.10;128762;1092;21251;-74
2021/06/06 05:10:32;;;;;;;;;;;;;;;18.70;60.32;100827.98;128857;1092;21247;-75
2021/06/06 05:13:03;;;;;;;;;;;;;;;18.91;60.14;100829.59;128629;1093;21274;-74
2021/06/06 05:15:34;;;;;;;;;;;;;;;19.13;59.62;100830.95;128390;1095;21273;-75
2021/06/06 05:18:06;;;;;;;;;;;;;;;19.35;58.96;100841.35;128324;1095;22316;-75
2021/06/06 05:20:39;;;;;;;;;;;;;;;19.58;58.38;100833.60;128344;1095;21259;-75
2021/06/06 05:23:10;;;;;;;;;;;;;;;19.80;57.45;100828.77;128592;1095;21266;-74
2021/06/06 05:25:42;;;;;;;;;;;;;;;20.01;56.81;100832.93;128591;1094;21264;-74
2021/06/06 05:28:15;;;;;;;;;;;;;;;20.23;56.43;100838.75;128579;1094;21270;-74
2021/06/06 05:30:44;;;;;;;;;;;;;;;20.48;55.90;100841.39;128432;1092;22978;-74
2021/06/06 05:33:14;;;;;;;;;;;;;;;20.77;55.48;100844.45;128752;1092;21330;-74
2021/06/06 05:35:44;;;;;;;;;;;;;;;21.08;54.68;100846.16;128685;1092;21359;-74
2021/06/06 05:38:16;;;;;;;;;;;;;;;21.38;54.26;100840.84;128619;1092;21256;-74
2021/06/06 05:40:47;;;;;;;;;;;;;;;21.74;53.60;100839.11;128603;1092;21275;-75
2021/06/06 05:43:18;;;;;;;;;;;;;;;22.03;52.18;100848.19;128647;1092;23125;-75
2021/06/06 05:45:48;;;;;;;;;;;;;;;22.35;51.77;100842.51;128712;1092;21253;-75
2021/06/06 05:48:21;;;;;;;;;;;;;;;22.68;51.15;100848.11;128752;1090;21254;-75
2021/06/06 05:50:54;;;;;;;;;;;;;;;23.06;51.17;100848.66;128769;1092;21250;-75
2021/06/06 05:53:42;;;;;;;;;;;;;;;23.58;50.17;100843.20;128687;1091;21257;-76
2021/06/06 05:56:12;;;;;;;;;;;;;;;23.96;48.89;100845.27;128679;1092;21250;-76
2021/06/06 05:58:42;;;;;;;;;;;;;;;24.37;48.62;100838.61;128690;1092;21257;-76
2021/06/06 06:01:12;;;;;;;;;;;;;;;24.78;47.55;100844.61;128668;1092;21346;-75
2021/06/06 06:03:41;;;;;;;;;;;;;;;25.15;46.40;100835.09;128624;1092;21260;-75
2021/06/06 06:06:11;;;;;;;;;;;;;;;25.56;46.21;100842.59;128640;1092;23249;-75
2021/06/06 06:08:43;;;;;;;;;;;;;;;25.98;45.50;100844.60;128645;1092;21251;-75
2021/06/06 06:11:17;;;;;;;;;;;;;;;26.35;44.36;100842.98;128696;1090;21253;-75
2021/06/06 06:13:49;;;;;;;;;;;;;;;26.57;43.78;100840.98;128660;1092;22979;-75
2021/06/06 06:16:36;;;;;;;;;;;;;;;26.73;43.36;100844.60;128680;1092;21257;-75
2021/06/06 06:19:07;;;;;;;;;;;;;;;26.89;43.25;100846.31;128652;1092;21371;-76
2021/06/06 06:21:39;;;;;;;;;;;;;;;27.10;43.00;100847.20;128747;1092;21260;-76
2021/06/06 06:24:11;;;;;;;;;;;;;;;27.28;42.38;100847.82;128576;1092;21363;-75
2021/06/06 06:26:41;;;;;;;;;;;;;;;27.39;41.21;100847.59;128622;1092;23065;-75
2021/06/06 06:29:40;;;;;;;;;;;;;;;27.57;41.72;100851.69;128659;1092;21257;-75
2021/06/06 06:34:33;;;;;;;12.63;3.80;;;;;;;27.78;42.89;100859.88;128801;1092;24499;-75
2021/06/06 06:37:03;;;;;;;5.60;4.43;;;;;;;28.01;41.48;100850.39;128646;1092;22356;-75
2021/06/06 06:39:33;;;;;;;6.18;3.98;;;;;;;28.31;40.35;100854.98;128638;1092;22334;-76
2021/06/06 06:42:04;;;;;;;4.85;2.58;;;;;;;28.52;38.06;100856.59;128600;1092;22335;-76
2021/06/06 06:44:42;;;;;;;5.18;2.90;;;;;;;28.59;36.68;100859.87;128592;1092;22344;-75
2021/06/06 06:47:14;;;;;;;3.48;2.53;;;;;;;28.60;35.99;100858.77;128717;1092;22415;-75
2021/06/06 06:49:44;;;;;;;3.15;2.13;;;;;;;28.70;35.01;100859.83;128612;1092;24492;-75
2021/06/06 06:52:14;;;;;;;3.23;2.80;;;;;;;28.83;34.38;100860.06;128683;1091;22334;-75
2021/06/06 06:54:44;;;;;;;6.53;2.70;;;;;;;28.81;34.30;100856.79;128745;1092;22377;-75
2021/06/06 06:57:14;;;;;;;3.50;2.67;;;;;;;28.95;33.89;100850.76;128675;1092;22358;-75
2021/06/06 06:59:44;;;;;;;5.28;2.98;;;;;;;28.99;33.34;100851.82;128628;1092;24486;-75
2021/06/06 07:02:14;;;;;;;5.13;2.63;;;;;;;28.90;33.12;100850.80;128606;1092;22398;-75
2021/06/06 07:04:44;;;;;;;5.68;2.98;;;;;;;28.99;33.68;100851.82;128613;1092;23085;-75
2021/06/06 07:07:14;;;;;;;4.90;3.00;;;;;;;29.14;32.74;100854.52;128612;1092;22474;-75
2021/06/06 07:09:44;;;;;;;4.83;3.50;;;;;;;29.04;32.51;100851.84;128576;1092;22408;-75
2021/06/06 07:12:14;;;;;;;5.48;3.18;;;;;;;28.96;32.46;100850.50;128609;1092;24231;-76
2021/06/06 07:14:44;;;;;;;5.95;2.98;;;;;;;28.99;32.56;100854.54;128331;1092;23290;-76
2021/06/06 07:17:14;;;;;;;3.13;2.40;;;;;;;29.28;31.86;100849.27;128640;1092;22353;-76
2021/06/06 07:19:44;;;;;;;5.00;2.60;;;;;;;29.60;31.12;100851.56;128584;1091;24491;-76
2021/06/06 07:22:16;;;;;;;3.85;2.60;;;;;;;29.77;30.41;100851.16;128578;1092;22460;-76
2021/06/06 07:24:46;;;;;;;3.77;2.60;;;;;;;29.90;30.12;100849.70;128616;1092;22340;-75
2021/06/06 07:27:16;;;;;;;4.90;2.35;;;;;;;29.92;30.13;100847.49;128627;1092;22353;-75
2021/06/06 07:29:48;;;;;;;7.38;3.43;;;;;;;30.04;29.83;100844.41;128656;1092;22350;-75
2021/06/06 07:32:17;;;;;;;5.20;2.75;;;;;;;30.21;29.08;100852.99;128647;1092;22297;-75
2021/06/06 07:34:47;;;;;;;4.33;2.40;;;;;;;30.08;28.99;100842.73;128581;1090;22443;-75
2021/06/06 07:37:17;;;;;;;4.58;3.35;;;;;;;30.20;29.26;100844.02;128553;1092;22382;-76
2021/06/06 07:39:48;;;;;;;9.53;2.58;;;;;;;30.38;29.11;100852.55;128610;1092;22791;-76
2021/06/06 07:42:17;;;;;;;3.43;2.80;;;;;;;30.64;28.76;100855.83;128576;1092;22399;-75
2021/06/06 07:44:47;;;;;;;4.60;2.60;;;;;;;30.63;28.16;100838.66;128624;1092;24980;-76
2021/06/06 07:47:17;;;;;;;7.17;2.70;;;;;;;30.79;27.92;100852.13;128609;1092;22339;-76
2021/06/06 07:49:47;;;;;;;7.00;2.80;;;;;;;30.84;28.24;100841.98;128680;1092;22436;-75
2021/06/06 07:52:16;;;;;;;3.20;2.73;;;;;;;31.02;27.88;100842.30;128609;1092;22372;-76
2021/06/06 07:54:46;;;;;;;5.33;3.67;;;;;;;31.13;27.93;100843.80;128584;1092;22379;-76
2021/06/06 07:57:17;;;;;;;5.00;3.95;;;;;;;31.24;27.21;100847.20;128229;1095;22404;-75
2021/06/06 07:59:46;;;;;;;4.70;3.15;;;;;;;31.25;26.93;100848.81;128299;1093;22804;-76
2021/06/06 08:02:19;;;;;;;6.65;3.15;;;;;;;31.15;27.50;100844.30;128033;1096;22402;-76
2021/06/06 08:04:49;;;;;;;4.50;2.87;;;;;;;31.22;27.25;100847.48;127973;1098;22548;-76
2021/06/06 08:07:18;;;;;;;6.07;2.60;;;;;;;31.36;27.36;100851.15;127969;1098;22502;-75
2021/06/06 08:09:48;;;;;;;5.75;2.88;;;;;;;31.61;27.05;100844.48;128203;1098;23351;-75
2021/06/06 08:12:18;;;;;;;5.40;2.58;;;;;;;31.77;26.94;100842.33;128039;1098;22398;-74
2021/06/06 08:14:47;;;;;;;4.63;2.47;;;;;;;32.00;26.37;100839.80;128209;1095;22364;-75
2021/06/06 08:17:17;;;;;;;;;;;;;;;32.04;26.00;100841.63;128242;1095;24547;-75
2021/06/06 08:19:47;;;;;;;9.10;3.17;;;;;;;31.96;25.84;100842.33;128275;1092;22364;-76
2021/06/06 08:22:17;;;;;;;3.93;3.33;;;;;;;32.03;25.69;100848.20;128628;1092;22353;-75
2021/06/06 08:24:48;;;;;;;5.90;3.03;;;;;;;32.24;25.52;100837.72;128261;1095;25078;-75
2021/06/06 08:27:18;;;;;;;6.38;4.35;;;;;;;32.30;25.18;100844.72;128318;1095;22340;-76
2021/06/06 08:29:47;;;;;;;4.70;2.70;;;;;;;32.28;25.15;100844.20;128261;1095;24496;-74
2021/06/06 08:32:17;;;;;;;4.65;2.88;;;;;;;32.22;24.94;100847.32;128214;1095;23238;-75
2021/06/06 08:34:49;;;;;;;5.65;2.80;;;;;;;32.35;25.09;100843.80;128262;1095;22374;-76
2021/06/06 08:37:19;;;;;;;3.88;2.38;;;;;;;32.44;24.53;100843.95;128239;1095;22356;-75
2021/06/06 08:39:49;;;;;;;4.53;2.60;;;;;;;32.32;24.38;100847.97;128244;1095;24176;-75
2021/06/06 08:42:27;;;;;;;9.57;3.67;;;;;;;32.24;24.11;100856.85;128331;1092;23281;-76
2021/06/06 08:45:25;;;;;;;5.43;3.20;;;;;;;32.13;24.51;100855.42;128660;1090;23331;-77
2021/06/06 08:47:58;;;;;;;5.03;2.38;;;;;;;32.05;24.75;100845.97;128686;1092;22461;-76
2021/06/06 08:50:36;;;;;;;5.45;4.85;;;;;;;32.07;24.96;100845.69;128634;1092;22349;-78
2021/06/06 08:53:56;;;;;;;6.55;3.08;;;;;;;31.75;24.22;100847.27;128565;1091;22366;-75
2021/06/06 08:56:35;;;;;;;5.00;4.60;;;;;;;31.24;25.42;100842.55;128606;1092;24243;-75
2021/06/06 08:59:41;;;;;;;3.98;2.65;;;;;;;31.20;25.18;100844.25;128646;1092;22350;-75
2021/06/06 09:02:30;;;;;;;4.73;2.30;;;;;;;30.89;25.22;100841.93;128598;1092;22694;-75
2021/06/06 09:05:04;;;;;;;2.83;2.20;;;;;;;30.32;25.59;100838.16;128705;1092;22366;-76
2021/06/06 09:07:40;;;;;;;4.63;3.03;;;;;;;29.78;26.08;100833.72;128740;1092;22350;-76
2021/06/06 09:10:31;;;;;;;3.70;2.30;;;;;;;29.45;26.37;100833.38;128648;1092;23646;-75
2021/06/06 09:13:06;;;;;;;9.10;7.38;;;;;;;29.05;27.10;100835.23;128638;1092;22644;-75
2021/06/06 09:15:36;;;;;;;4.45;2.68;;;;;;;29.21;27.30;100827.81;128621;1092;22405;-76
2021/06/06 09:18:20;;;;;;;6.93;2.48;;;;;;;29.19;27.31;100821.02;128644;1092;22795;-75
2021/06/06 09:20:52;;;;;;;6.75;2.20;;;;;;;29.05;27.48;100829.79;128623;1092;24498;-76
2021/06/06 09:23:28;;;;;;;3.65;2.18;;;;;;;29.20;26.96;100811.78;128631;1092;22382;-76
2021/06/06 09:26:06;;;;;;;2.63;2.03;;;;;;;29.69;26.79;100814.47;128610;1092;22351;-76
2021/06/06 09:28:43;;;;;;;3.75;2.30;;;;;;;30.19;25.46;100811.59;128599;1092;22358;-76
2021/06/06 09:31:16;;;;;;;5.33;1.88;;;;;;;30.54;24.85;100815.86;128580;1092;22350;-76
2021/06/06 09:33:52;;;;;;;3.13;2.40;;;;;;;30.95;24.68;100821.64;128636;1092;22362;-76
2021/06/06 09:36:27;;;;;;;3.33;2.18;;;;;;;31.20;23.82;100821.61;128731;1092;22352;-75
2021/06/06 09:39:03;;;;;;;2.33;1.93;;;;;;;31.11;23.49;100810.53;128651;1092;22352;-76
2021/06/06 09:41:37;;;;;;;5.90;2.28;;;;;;;31.09;23.51;100820.91;128701;1092;22362;-75
2021/06/06 09:44:29;;;;;;;5.10;2.30;;;;;;;31.32;23.50;100809.17;128594;1092;22662;-75
2021/06/06 09:47:19;;;;;;;2.75;2.10;;;;;;;31.40;23.13;100811.23;128684;1092;22791;-75
2021/06/06 09:50:04;;;;;;;5.20;1.98;;;;;;;31.51;22.71;100813.80;128208;1095;24585;-75
2021/06/06 09:52:42;;;;;;;2.93;1.93;;;;;;;31.49;22.63;100813.27;128274;1095;24246;-76
2021/06/06 09:55:24;;;;;;;5.20;2.23;;;;;;;31.49;22.36;100818.73;128283;1095;22391;-76
2021/06/06 09:58:28;;;;;;;2.53;1.80;;;;;;;31.61;22.11;100808.98;128184;1095;24331;-74
2021/06/06 10:01:23;;;;;;;3.60;1.98;;;;;;;31.54;22.32;100811.28;128199;1095;24241;-76
2021/06/06 10:04:05;;;;;;;3.93;1.88;;;;;;;31.11;22.54;100815.98;128243;1095;22474;-75
2021/06/06 10:06:41;;;;;;;6.03;2.00;;;;;;;30.70;22.99;100809.12;128203;1095;22418;-76
2021/06/06 10:09:33;;;;;;;6.75;2.18;;;;;;;30.66;23.20;100804.55;128306;1095;22375;-75
2021/06/06 10:12:10;;;;;;;6.43;1.80;;;;;;;30.44;23.11;100811.33;128012;1098;22365;-75
2021/06/06 10:14:54;;;;;;;3.15;1.90;;;;;;;30.36;22.98;100798.34;128246;1098;22372;-75
2021/06/06 10:18:01;;;;;;;8.30;2.48;;;;;;;30.20;23.05;100805.86;128098;1098;22358;-75
2021/06/06 10:20:38;;;;;;;5.98;1.73;;;;;;;29.93;22.88;100800.11;128206;1098;22371;-75
2021/06/06 10:23:44;;;;;;;2.75;1.88;;;;;;;29.25;23.16;100798.94;128278;1097;22359;-76
2021/06/06 10:26:51;;;;;;;4.28;1.98;;;;;;;28.61;24.02;100803.30;127602;1101;22395;-75
2021/06/06 10:29:36;;;;;;;4.05;2.30;;;;;;;28.08;24.51;100802.05;128191;1098;22388;-75
2021/06/06 10:32:13;;;;;;;11.35;10.30;;;;;;;27.76;24.97;100795.02;128288;1097;24541;-75
2021/06/06 10:35:12;;;;;;;4.78;3.98;;;;;;;27.61;25.33;100794.97;128117;1098;23218;-76
2021/06/06 10:37:47;;;;;;;3.45;2.23;;;;;;;27.78;25.56;100797.45;128057;1098;24531;-75
2021/06/06 10:40:50;;;;;;;3.60;2.08;;;;;;;27.99;25.43;100793.66;128051;1098;22492;-75
2021/06/06 10:44:00;;;;;;;3.73;3.43;;;;;;;27.95;25.14;100794.45;128002;1098;22371;-75
2021/06/06 10:47:25;;;;;;;3.18;2.25;;;;;;;27.62;25.28;100792.00;127949;1099;22414;-75
2021/06/06 10:50:01;;;;;;;8.35;2.90;;;;;;;27.41;25.87;100790.34;127669;1101;24874;-75
2021/06/06 10:52:38;;;;;;;8.80;2.20;;;;;;;27.39;25.91;100789.78;127954;1101;22363;-75
2021/06/06 10:55:36;;;;;;;3.63;2.80;;;;;;;27.32;25.89;100789.23;127616;1101;24521;-75
2021/06/06 10:58:18;;;;;;;4.35;2.60;;;;;;;27.29;26.28;100782.47;127999;1101;22420;-74
2021/06/06 11:01:03;;;;;;;3.18;1.80;;;;;;;27.26;26.79;100782.16;127944;1101;22829;-75
2021/06/06 11:03:36;;;;;;;2.90;2.10;;;;;;;27.12;26.65;100776.41;127923;1098;24512;-75
2021/06/06 11:06:33;;;;;;;7.40;3.10;;;;;;;27.04;27.12;100783.18;127909;1098;25130;-75
2021/06/06 11:09:04;;;;;;;4.83;2.85;;;;;;;27.00;26.85;100787.52;128000;1098;25123;-75
2021/06/06 11:11:38;;;;;;;5.65;2.38;;;;;;;26.89;26.71;100780.41;128023;1098;22470;-74
2021/06/06 11:14:18;;;;;;;7.70;2.15;;;;;;;26.67;26.78;100783.33;127964;1098;22764;-76
2021/06/06 11:16:53;;;;;;;4.30;2.88;;;;;;;26.41;26.87;100779.64;127969;1098;24514;-75
2021/06/06 11:19:28;;;;;;;5.48;4.98;;;;;;;26.29;26.91;100779.83;127920;1096;22385;-76
2021/06/06 11:22:27;;;;;;;7.45;3.50;;;;;;;26.32;27.30;100773.08;128018;1098;22351;-76
2021/06/06 11:24:57;;;;;;;2.85;2.28;;;;;;;26.41;27.23;100772.32;128278;1092;23513;-75
2021/06/06 11:28:00;;;;;;;2.33;1.90;;;;;;;26.53;27.28;100769.45;128618;1092;22353;-75
2021/06/06 11:30:35;;;;;;;4.63;3.93;;;;;;;26.73;27.25;100766.02;128609;1092;22425;-75
2021/06/06 11:33:14;;;;;;;3.95;2.13;;;;;;;26.87;27.11;100769.84;128615;1092;22393;-75
2021/06/06 11:35:50;;;;;;;2.78;2.38;;;;;;;26.89;26.85;100766.86;128611;1092;22353;-75
2021/06/06 11:38:45;;;;;;;7.18;3.65;;;;;;;26.75;26.72;100766.54;128689;1092;22340;-75
2021/06/06 11:41:38;;;;;;;4.60;2.98;;;;;;;26.56;26.84;100770.79;128594;1092;22333;-75
2021/06/06 11:44:38;;;;;;;7.65;3.00;;;;;;;26.34;27.03;100766.33;128687;1092;23122;-75
2021/06/06 11:47:15;;;;;;;3.85;2.60;;;;;;;26.23;26.98;100764.66;128664;1092;22343;-75
2021/06/06 11:49:56;;;;;;;4.40;2.28;;;;;;;26.16;27.04;100758.66;128634;1092;22436;-75
2021/06/06 11:52:36;;;;;;;3.10;2.10;;;;;;;26.13;27.34;100756.47;128604;1092;25014;-75
2021/06/06 11:55:17;;;;;;;5.13;2.38;;;;;;;26.13;27.40;100754.57;128639;1092;22415;-74
2021/06/06 11:57:52;;;;;;;4.70;2.70;;;;;;;26.20;27.31;100752.45;128740;1092;22433;-76
2021/06/06 12:00:41;;;;;;;3.70;2.13;;;;;;;26.30;27.62;100757.11;128588;1092;22347;-75
2021/06/06 12:03:35;;;;;;;2.20;1.93;;;;;;;26.31;26.53;100747.08;128727;1092;24489;-74
2021/06/06 12:06:28;;;;;;;2.53;1.78;;;;;;;26.28;25.95;100751.94;128626;1092;25739;-74
2021/06/06 12:09:16;;;;;;;2.48;2.20;;;;;;;26.31;25.89;100744.38;128659;1092;22347;-74